Time;durP1;ratioP1;P1;durP2;ratioP2;P2;SDS_P1;SDS_P2;PMS_P1;PMS_P2;Temp;Humidity;BMP_temperature;BMP_pressure;BME280_temperature;BME280_humidity;BME280_pressure;Samples;Min_cycle;Max_cycle;Signal;HPM_P1;HPM_P2
2023/02/24 00:02:18;;;;;;;63.80;34.30;;;;;;;7.35;100.00;99757.98;220150;1271;96673;-90
2023/02/24 00:07:19;;;;;;;60.00;31.20;;;;;;;7.36;100.00;99753.47;219441;1272;140955;-91
2023/02/24 00:12:20;;;;;;;62.50;33.40;;;;;;;7.34;100.00;99747.64;219676;1267;138970;-91
2023/02/24 00:17:22;;;;;;;57.40;31.00;;;;;;;7.32;100.00;99743.16;219120;1271;139292;-90
2023/02/24 00:22:23;;;;;;;57.40;31.20;;;;;;;7.32;100.00;99738.64;219516;1271;138819;-91
2023/02/24 00:27:23;;;;;;;52.50;29.00;;;;;;;7.31;100.00;99722.52;218947;1275;139181;-91
2023/02/24 00:32:24;;;;;;;56.50;30.70;;;;;;;7.31;100.00;99711.73;220473;1268;97844;-91
2023/02/24 00:37:24;;;;;;;54.70;28.70;;;;;;;7.30;100.00;99705.70;219043;1274;138948;-91
2023/02/24 00:42:25;;;;;;;48.30;28.20;;;;;;;7.29;100.00;99699.58;219593;1275;139352;-91
2023/02/24 00:47:25;;;;;;;58.90;28.60;;;;;;;7.27;100.00;99701.59;218881;1267;139190;-90
2023/02/24 00:52:26;;;;;;;52.60;28.60;;;;;;;7.26;100.00;99699.08;219511;1270;138693;-91
2023/02/24 00:57:27;;;;;;;49.80;27.20;;;;;;;7.25;100.00;99690.39;219038;1270;139481;-91
2023/02/24 01:02:27;;;;;;;50.20;26.80;;;;;;;7.23;100.00;99684.81;219603;1271;97933;-91
2023/02/24 01:07:28;;;;;;;51.80;27.10;;;;;;;7.21;100.00;99685.32;218889;1272;138496;-92
2023/02/24 01:12:37;;;;;;;49.90;25.80;;;;;;;7.19;100.00;99684.92;219564;1272;140011;-92
2023/02/24 01:17:38;;;;;;;46.50;23.70;;;;;;;7.17;100.00;99680.66;218949;1271;138963;-91
2023/02/24 01:22:38;;;;;;;44.10;24.30;;;;;;;7.15;100.00;99666.41;219516;1272;138912;-92
2023/02/24 01:27:39;;;;;;;45.60;24.40;;;;;;;7.14;100.00;99662.88;220036;1270;138872;-91
2023/02/24 01:32:41;;;;;;;50.10;26.40;;;;;;;7.12;100.00;99657.46;219305;1267;138911;-91
2023/02/24 01:37:42;;;;;;;47.00;24.60;;;;;;;7.11;100.00;99651.34;218958;1270;138710;-92
2023/02/24 01:42:46;;;;;;;47.40;25.60;;;;;;;7.08;100.00;99640.23;219198;1272;138624;-92
2023/02/24 01:47:48;;;;;;;42.40;23.50;;;;;;;7.07;100.00;99632.39;219235;1271;139061;-93
2023/02/24 01:52:51;;;;;;;50.40;25.40;;;;;;;7.06;100.00;99627.77;219387;1267;138796;-92
2023/02/24 01:57:53;;;;;;;49.90;24.10;;;;;;;7.05;100.00;99631.42;218742;1270;138968;-92
2023/02/24 02:02:59;;;;;;;48.70;23.70;;;;;;;7.05;100.00;99631.65;219383;1270;138898;-91
2023/02/24 02:08:00;;;;;;;44.90;22.70;;;;;;;7.02;100.00;99627.16;219107;1267;139314;-91
2023/02/24 02:13:03;;;;;;;54.40;26.00;;;;;;;7.01;100.00;99625.66;219429;1269;138739;-91
2023/02/24 02:18:24;;;;;;;50.20;23.60;;;;;;;6.98;100.00;99620.77;219231;1270;138807;-89
2023/02/24 02:23:43;;;;;;;44.20;21.80;;;;;;;6.94;100.00;99615.17;219817;1272;139232;-91
2023/02/24 02:28:49;;;;;;;44.20;21.80;;;;;;;6.93;100.00;99612.04;218818;1273;139272;-91
2023/02/24 02:34:14;;;;;;;44.10;20.80;;;;;;;6.91;100.00;99607.11;219524;1271;139546;-91
2023/02/24 02:39:59;;;;;;;46.30;21.20;;;;;;;6.89;100.00;99604.42;220829;1267;139038;-92
2023/02/24 02:45:13;;;;;;;43.60;20.70;;;;;;;6.87;100.00;99598.15;219096;1273;138723;-90
2023/02/24 02:50:48;;;;;;;45.10;21.20;;;;;;;6.85;100.00;99594.45;218999;1269;138618;-90
2023/02/24 02:56:00;;;;;;;41.80;19.50;;;;;;;6.83;100.00;99595.04;219485;1272;97980;-89
2023/02/24 03:01:05;;;;;;;38.90;19.80;;;;;;;6.79;100.00;99585.70;219066;1267;139130;-89
2023/02/24 03:06:27;;;;;;;43.70;20.60;;;;;;;6.77;100.00;99575.91;218981;1270;139600;-91
2023/02/24 03:11:31;;;;;;;43.40;19.20;;;;;;;6.75;100.00;99575.81;219382;1270;139196;-91
2023/02/24 03:16:33;;;;;;;41.00;18.90;;;;;;;6.73;100.00;99577.18;219067;1269;139080;-90
2023/02/24 03:21:45;;;;;;;37.80;17.30;;;;;;;6.70;100.00;99570.12;219272;1271;138937;-90
2023/02/24 03:27:05;;;;;;;44.60;19.90;;;;;;;6.66;100.00;99567.65;218672;1271;141037;-90
2023/02/24 03:32:14;;;;;;;40.70;18.30;;;;;;;6.62;100.00;99565.88;219446;1270;97993;-91
2023/02/24 03:37:15;;;;;;;37.40;18.00;;;;;;;6.59;100.00;99553.95;219023;1268;138859;-90
2023/02/24 03:42:18;;;;;;;40.00;18.60;;;;;;;6.55;100.00;99552.20;219490;1268;140004;-91
2023/02/24 03:47:19;;;;;;;38.80;18.70;;;;;;;6.53;100.00;99550.52;218722;1270;139015;-91
2023/02/24 03:52:40;;;;;;;37.10;18.10;;;;;;;6.49;100.00;99545.39;219268;1268;139286;-91
2023/02/24 03:57:59;;;;;;;40.90;18.70;;;;;;;6.46;100.00;99539.27;218790;1267;139377;-91
2023/02/24 04:03:11;;;;;;;47.00;17.90;;;;;;;6.44;100.00;99538.38;219473;1271;139145;-91
2023/02/24 04:08:12;;;;;;;37.20;17.50;;;;;;;6.42;100.00;99531.64;219349;1271;139546;-91
2023/02/24 04:13:18;;;;;;;48.00;21.70;;;;;;;6.40;100.00;99528.02;219164;1269;138489;-92
2023/02/24 04:18:23;;;;;;;45.20;19.20;;;;;;;6.36;100.00;99517.27;218903;1267;139277;-91
2023/02/24 04:23:28;;;;;;;42.70;19.70;;;;;;;6.34;100.00;99515.52;219312;1267;138715;-90
2023/02/24 04:28:30;;;;;;;46.50;19.30;;;;;;;6.31;100.00;99509.55;218923;1272;139872;-90
2023/02/24 04:33:32;;;;;;;47.60;18.70;;;;;;;6.26;100.00;99503.31;219412;1272;139164;-91
2023/02/24 04:38:32;;;;;;;47.60;18.50;;;;;;;6.23;100.00;99496.26;218906;1270;138683;-92
2023/02/24 04:43:34;;;;;;;46.90;18.80;;;;;;;6.21;100.00;99499.19;219466;1271;138282;-92
2023/02/24 04:48:35;;;;;;;46.40;19.10;;;;;;;6.18;100.00;99488.77;218952;1270;139158;-91
2023/02/24 04:53:36;;;;;;;49.30;19.20;;;;;;;6.15;100.00;99488.73;219298;1272;139380;-94
2023/02/24 04:58:38;;;;;;;46.50;18.40;;;;;;;6.12;100.00;99482.52;219083;1267;142172;-92
2023/02/24 05:03:42;;;;;;;49.30;19.50;;;;;;;6.09;100.00;99477.89;220025;1267;138704;-93
2023/02/24 05:08:44;;;;;;;49.50;19.90;;;;;;;6.06;100.00;99472.61;218817;1271;139557;-92
2023/02/24 05:13:44;;;;;;;49.60;20.10;;;;;;;6.06;100.00;99465.98;219357;1271;284564;-91
2023/02/24 05:18:45;;;;;;;51.60;19.90;;;;;;;6.05;100.00;99463.55;219046;1269;139079;-91
2023/02/24 05:23:45;;;;;;;55.10;21.40;;;;;;;6.04;100.00;99455.27;219422;1269;138661;-91
2023/02/24 05:28:51;;;;;;;47.70;18.70;;;;;;;6.04;100.00;99451.52;218835;1271;139335;-92
2023/02/24 05:33:53;;;;;;;48.90;18.00;;;;;;;6.00;100.00;99447.72;220245;1269;139139;-90
2023/02/24 05:39:05;;;;;;;43.70;16.50;;;;;;;5.99;100.00;99445.42;218806;1268;139188;-90
2023/02/24 05:44:09;;;;;;;48.70;18.50;;;;;;;5.98;100.00;99438.71;219610;1269;111526;-91
2023/02/24 05:49:22;;;;;;;45.30;16.60;;;;;;;5.97;100.00;99436.20;218952;1269;139191;-89
2023/02/24 05:54:34;;;;;;;44.60;16.40;;;;;;;5.94;100.00;99436.64;219757;1268;139337;-90
2023/02/24 05:59:35;;;;;;;49.00;18.50;;;;;;;5.93;100.00;99428.26;219054;1268;139829;-91
2023/02/24 06:04:44;;;;;;;44.30;16.90;;;;;;;5.92;100.00;99428.03;219695;1269;139105;-92
2023/02/24 06:09:48;;;;;;;41.50;14.80;;;;;;;5.91;100.00;99423.00;219162;1271;138694;-92
2023/02/24 06:14:49;;;;;;;44.00;15.50;;;;;;;5.88;100.00;99422.43;219779;1267;138702;-92
2023/02/24 06:19:51;;;;;;;45.90;14.00;;;;;;;5.83;100.00;99415.73;219181;1269;138982;-91
2023/02/24 06:24:53;;;;;;;40.70;14.00;;;;;;;5.83;100.00;99413.70;219223;1270;138903;-89
2023/02/24 06:29:55;;;;;;;39.30;13.80;;;;;;;5.81;100.00;99412.50;218624;1268;139354;-89
2023/02/24 06:34:56;;;;;;;32.00;11.40;;;;;;;5.78;100.00;99421.55;219267;1271;139936;-88
2023/02/24 06:39:57;;;;;;;27.20;12.00;;;;;;;5.73;100.00;99433.75;218898;1271;139024;-88
2023/02/24 06:44:58;;;;;;;11.80;5.80;;;;;;;5.66;100.00;99440.42;219613;1271;139673;-87
2023/02/24 06:49:59;;;;;;;12.20;5.40;;;;;;;5.56;100.00;99444.02;219140;1267;139819;-87
2023/02/24 06:54:59;;;;;;;10.60;4.20;;;;;;;5.44;100.00;99449.37;219536;1267;138842;-87
2023/02/24 07:00:15;;;;;;;9.60;4.00;;;;;;;5.35;100.00;99448.51;219073;1267;140027;-88
2023/02/24 07:05:16;;;;;;;9.40;2.90;;;;;;;5.25;100.00;99447.11;219514;1268;138591;-87
2023/02/24 07:10:16;;;;;;;8.30;2.70;;;;;;;5.18;100.00;99450.02;218989;1268;138869;-88
2023/02/24 07:15:17;;;;;;;8.90;3.50;;;;;;;5.11;100.00;99454.42;219598;1267;138313;-88
2023/02/24 07:20:24;;;;;;;11.60;3.40;;;;;;;5.05;100.00;99455.27;218918;1268;138603;-88
2023/02/24 07:25:34;;;;;;;10.30;3.70;;;;;;;4.99;100.00;99455.87;219351;1269;139084;-88
2023/02/24 07:30:37;;;;;;;12.00;3.80;;;;;;;4.91;100.00;99450.48;218965;1271;139084;-87
2023/02/24 07:35:39;;;;;;;12.30;4.70;;;;;;;4.85;100.00;99446.72;219395;1267;139108;-86
2023/02/24 07:40:39;;;;;;;12.40;4.90;;;;;;;4.81;100.00;99440.58;219358;1267;139268;-85
2023/02/24 07:45:40;;;;;;;19.60;4.50;;;;;;;4.78;100.00;99441.83;219549;1269;138941;-86
2023/02/24 07:50:40;;;;;;;9.40;4.30;;;;;;;4.70;100.00;99435.71;219396;1269;138923;-85
2023/02/24 07:55:41;;;;;;;11.80;4.80;;;;;;;4.65;100.00;99439.42;219615;1268;138072;-88
2023/02/24 08:00:59;;;;;;;12.90;5.30;;;;;;;4.56;100.00;99435.45;218981;1271;139245;-86
2023/02/24 08:06:11;;;;;;;14.90;6.20;;;;;;;4.46;100.00;99431.12;218957;1269;139104;-86
2023/02/24 08:11:13;;;;;;;18.80;6.10;;;;;;;4.42;100.00;99420.85;219429;1268;141284;-87
2023/02/24 08:16:14;;;;;;;13.60;5.50;;;;;;;4.37;100.00;99404.34;219220;1267;139337;-87
2023/02/24 08:21:20;;;;;;;13.00;4.10;;;;;;;4.35;100.00;99393.79;219617;1270;138476;-85
2023/02/24 08:26:29;;;;;;;14.30;3.40;;;;;;;4.28;100.00;99399.02;220129;1268;138953;-88
2023/02/24 08:31:29;;;;;;;13.60;3.80;;;;;;;4.18;100.00;99400.60;219997;1271;139129;-86
2023/02/24 08:36:30;;;;;;;21.60;4.80;;;;;;;4.08;100.00;99395.89;219411;1271;138715;-86
2023/02/24 08:41:43;;;;;;;29.90;4.80;;;;;;;3.99;100.00;99392.13;219464;1267;138926;-88
2023/02/24 08:46:44;;;;;;;15.10;3.90;;;;;;;3.84;100.00;99392.06;219211;1269;138976;-88
2023/02/24 08:51:47;;;;;;;18.30;4.30;;;;;;;3.71;100.00;99393.51;219623;1268;139033;-89
2023/02/24 08:56:48;;;;;;;19.30;6.30;;;;;;;3.59;100.00;99382.75;219108;1267;139430;-88
2023/02/24 09:01:53;;;;;;;16.40;4.60;;;;;;;3.54;100.00;99377.80;219825;1269;97930;-87
2023/02/24 09:06:56;;;;;;;23.40;5.00;;;;;;;3.48;100.00;99380.65;219082;1267;138900;-87
2023/02/24 09:11:59;;;;;;;15.30;4.40;;;;;;;3.45;100.00;99372.02;219810;1268;139654;-88
2023/02/24 09:17:02;;;;;;;18.70;3.80;;;;;;;3.38;100.00;99362.84;219343;1268;139146;-88
2023/02/24 09:22:13;;;;;;;18.40;3.90;;;;;;;3.32;100.00;99360.00;219907;1267;138530;-87
2023/02/24 09:27:16;;;;;;;16.50;3.50;;;;;;;3.32;100.00;99366.14;219716;1271;139289;-88
2023/02/24 09:32:16;;;;;;;16.30;3.50;;;;;;;3.37;100.00;99352.17;219722;1268;99166;-89
2023/02/24 09:37:26;;;;;;;14.90;3.50;;;;;;;3.46;100.00;99346.95;219057;1271;138905;-87
2023/02/24 09:42:31;;;;;;;14.40;3.60;;;;;;;3.56;100.00;99341.41;219539;1269;138257;-87
2023/02/24 09:47:55;;;;;;;10.50;2.60;;;;;;;3.60;100.00;99335.03;219230;1269;138731;-85
2023/02/24 09:53:12;;;;;;;17.10;3.10;;;;;;;3.58;100.00;99333.46;219689;1268;139291;-86
2023/02/24 09:58:29;;;;;;;11.60;3.30;;;;;;;3.61;100.00;99327.92;219270;1271;140962;-87
2023/02/24 10:03:46;;;;;;;16.80;3.60;;;;;;;3.64;100.00;99320.98;219604;1271;139916;-86
2023/02/24 10:09:10;;;;;;;12.50;3.20;;;;;;;3.66;100.00;99310.84;219109;1271;138667;-88
2023/02/24 10:14:18;;;;;;;11.40;3.30;;;;;;;3.72;100.00;99304.36;219630;1268;106648;-90
2023/02/24 10:19:27;;;;;;;13.40;2.70;;;;;;;3.84;100.00;99294.88;219064;1271;138335;-89
2023/02/24 10:24:33;;;;;;;15.90;3.30;;;;;;;3.86;99.87;99290.02;219327;1271;139285;-86
2023/02/24 10:30:04;;;;;;;12.80;2.70;;;;;;;3.85;99.92;99283.39;219022;1269;139033;-84
2023/02/24 10:35:11;;;;;;;13.20;2.40;;;;;;;3.90;99.77;99279.83;219598;1267;138739;-86
2023/02/24 10:40:23;;;;;;;16.60;3.90;;;;;;;3.90;98.75;99278.50;219048;1271;138657;-86
2023/02/24 10:45:30;;;;;;;11.60;2.70;;;;;;;3.92;99.96;99268.80;219610;1271;138374;-85
2023/02/24 10:50:43;;;;;;;13.70;2.40;;;;;;;4.00;99.89;99260.64;219419;1268;138353;-85
2023/02/24 11:01:11;;;;;;;12.40;3.70;;;;;;;4.15;97.72;99237.66;219087;1271;138314;-88
2023/02/24 11:06:40;;;;;;;10.90;2.50;;;;;;;4.23;97.06;99226.74;218977;1271;138738;-87
2023/02/24 11:17:16;;;;;;;11.30;3.40;;;;;;;4.42;96.50;99202.02;219146;1271;139033;-89
2023/02/24 11:22:23;;;;;;;12.60;4.40;;;;;;;4.58;95.54;99191.59;219718;1267;138314;-87
2023/02/24 11:27:25;;;;;;;13.90;3.70;;;;;;;4.65;95.25;99175.80;218968;1268;139063;-87
2023/02/24 11:32:44;;;;;;;9.70;3.20;;;;;;;4.82;96.12;99159.77;219745;1269;97856;-86
2023/02/24 11:38:06;;;;;;;12.80;4.30;;;;;;;4.97;94.69;99145.88;219072;1269;138343;-87
2023/02/24 11:43:19;;;;;;;14.80;4.30;;;;;;;5.06;93.60;99147.40;219581;1267;138324;-88
2023/02/24 11:48:26;;;;;;;12.00;4.10;;;;;;;5.11;92.51;99138.02;218869;1271;139062;-89
2023/02/24 11:53:41;;;;;;;14.70;4.30;;;;;;;5.16;92.69;99133.48;219720;1268;138324;-88
2023/02/24 11:58:49;;;;;;;8.10;3.20;;;;;;;5.16;90.43;99124.85;218941;1267;138674;-88
2023/02/24 12:04:22;;;;;;;8.70;3.60;;;;;;;5.09;89.78;99119.23;219925;1269;138179;-86
2023/02/24 12:09:27;;;;;;;11.40;4.70;;;;;;;5.13;90.24;99111.73;219053;1271;138501;-88
2023/02/24 12:14:46;;;;;;;17.70;3.80;;;;;;;5.21;89.95;99107.54;219923;1269;111972;-87
2023/02/24 12:19:50;;;;;;;9.60;2.80;;;;;;;5.32;89.07;99093.38;218977;1267;138527;-86
2023/02/24 12:24:51;;;;;;;13.20;2.30;;;;;;;5.36;87.90;99087.13;219530;1269;138194;-88
2023/02/24 12:30:21;;;;;;;9.80;2.50;;;;;;;5.36;87.38;99082.59;219094;1271;138833;-88
2023/02/24 12:35:31;;;;;;;13.70;3.10;;;;;;;5.43;86.78;99071.83;219571;1271;138501;-89
2023/02/24 12:41:05;;;;;;;9.10;3.00;;;;;;;5.50;86.72;99064.56;219436;1271;138397;-90
2023/02/24 12:46:23;;;;;;;9.40;2.40;;;;;;;5.54;85.19;99052.36;219852;1268;138631;-89
2023/02/24 12:51:40;;;;;;;7.00;2.20;;;;;;;5.59;84.57;99047.10;220992;1268;138663;-88
2023/02/24 12:56:41;;;;;;;;;;;;;;;5.60;84.05;99045.23;219801;1271;138399;-89
2023/02/24 13:02:06;;;;;;;8.40;2.20;;;;;;;5.60;84.55;99041.73;219709;1270;124232;-89
2023/02/24 13:07:22;;;;;;;6.30;1.80;;;;;;;5.66;83.79;99030.56;219113;1268;139680;-89
2023/02/24 13:12:37;;;;;;;12.10;3.30;;;;;;;5.65;84.27;99018.93;219624;1271;138054;-87
2023/02/24 13:17:46;;;;;;;9.60;2.30;;;;;;;5.61;83.06;99006.50;219064;1271;140102;-90
2023/02/24 13:22:49;;;;;;;8.70;2.40;;;;;;;5.60;82.36;99000.64;219481;1271;138778;-86
2023/02/24 13:28:00;;;;;;;11.20;2.20;;;;;;;5.58;83.07;98996.11;218984;1270;138258;-89
2023/02/24 13:33:20;;;;;;;9.40;2.20;;;;;;;5.63;82.72;98984.84;219493;1271;138882;-87
2023/02/24 13:38:35;;;;;;;10.10;2.90;;;;;;;5.67;81.66;98972.23;219479;1269;138391;-89
2023/02/24 13:43:43;;;;;;;10.60;4.00;;;;;;;5.66;81.58;98968.65;219802;1269;138494;-90
2023/02/24 13:48:51;;;;;;;13.40;4.30;;;;;;;5.69;81.80;98958.52;219329;1269;138403;-87
2023/02/24 13:54:04;;;;;;;14.10;4.00;;;;;;;5.72;81.17;98957.08;219733;1268;138457;-86
2023/02/24 13:59:07;;;;;;;18.50;3.30;;;;;;;5.76;82.54;98942.76;219087;1269;138548;-86
2023/02/24 14:04:16;;;;;;;10.60;2.90;;;;;;;5.82;81.93;98935.64;222299;1268;138273;-88
2023/02/24 14:09:39;;;;;;;7.80;2.90;;;;;;;5.83;81.22;98930.25;219191;1269;138985;-88
2023/02/24 14:14:43;;;;;;;6.40;2.10;;;;;;;5.80;80.95;98926.96;220080;1269;106033;-90
2023/02/24 14:19:43;;;;;;;11.90;2.70;;;;;;;5.69;79.72;98918.77;219056;1271;138764;-88
2023/02/24 14:24:43;;;;;;;8.40;2.60;;;;;;;5.59;79.98;98915.27;219796;1271;139364;-89
2023/02/24 14:29:44;;;;;;;20.60;6.50;;;;;;;5.52;80.19;98900.88;220393;1269;139184;-88
2023/02/24 14:34:46;;;;;;;15.00;2.90;;;;;;;5.50;80.61;98895.02;220954;1270;138887;-90
2023/02/24 14:39:55;;;;;;;9.00;2.70;;;;;;;5.45;79.84;98888.28;219617;1271;138864;-89
2023/02/24 14:44:57;;;;;;;11.40;3.10;;;;;;;5.38;79.47;98886.29;219641;1269;138849;-87
2023/02/24 14:50:01;;;;;;;14.60;3.90;;;;;;;5.35;79.60;98879.48;219207;1271;138403;-86
2023/02/24 14:55:18;;;;;;;16.10;4.50;;;;;;;5.30;79.90;98874.39;220495;1271;139417;-86
2023/02/24 15:00:23;;;;;;;13.10;4.50;;;;;;;5.25;79.83;98867.17;219005;1268;138957;-86
2023/02/24 15:05:24;;;;;;;12.70;4.50;;;;;;;5.21;80.19;98860.46;219558;1271;138463;-87
2023/02/24 15:10:28;;;;;;;16.10;4.10;;;;;;;5.19;80.52;98853.11;219070;1269;139113;-88
2023/02/24 15:15:36;;;;;;;10.60;3.90;;;;;;;5.16;81.00;98850.21;219611;1269;138416;-87
2023/02/24 15:20:39;;;;;;;8.50;3.00;;;;;;;5.06;80.34;98842.27;219001;1269;139489;-86
2023/02/24 15:25:46;;;;;;;13.00;3.10;;;;;;;4.98;80.78;98834.34;219294;1271;139350;-85
2023/02/24 15:31:02;;;;;;;10.40;3.30;;;;;;;4.92;81.42;98822.15;218706;1271;138492;-84
2023/02/24 15:36:08;;;;;;;11.70;3.80;;;;;;;4.91;81.69;98808.42;219194;1269;138552;-87
2023/02/24 15:41:10;;;;;;;12.10;4.20;;;;;;;4.89;81.91;98794.55;219855;1269;139115;-86
2023/02/24 15:46:34;;;;;;;11.50;3.30;;;;;;;4.85;81.86;98790.48;219088;1271;138887;-87
2023/02/24 15:51:40;;;;;;;13.20;3.80;;;;;;;4.81;82.18;98778.45;219858;1271;138426;-87
2023/02/24 15:56:42;;;;;;;13.30;4.40;;;;;;;4.77;82.30;98769.39;220974;1271;138373;-87
2023/02/24 16:01:43;;;;;;;13.60;5.00;;;;;;;4.72;82.07;98767.17;219479;1271;138249;-86
2023/02/24 16:06:53;;;;;;;12.70;5.10;;;;;;;4.68;82.67;98758.82;219077;1271;138942;-86
2023/02/24 16:11:53;;;;;;;17.10;5.30;;;;;;;4.64;83.19;98754.73;219942;1267;139743;-85
2023/02/24 16:16:54;;;;;;;15.60;6.50;;;;;;;4.60;83.42;98746.77;218944;1269;138743;-84
2023/02/24 16:21:54;;;;;;;11.90;4.70;;;;;;;4.55;83.56;98745.64;219639;1271;139078;-85
2023/02/24 16:26:55;;;;;;;13.60;5.90;;;;;;;4.52;84.03;98747.02;219417;1269;139223;-87
2023/02/24 16:31:55;;;;;;;14.60;6.30;;;;;;;4.49;84.48;98740.30;219694;1272;98059;-87
2023/02/24 16:36:55;;;;;;;23.00;8.10;;;;;;;4.46;84.90;98735.30;218966;1270;138254;-87
2023/02/24 16:42:19;;;;;;;20.70;8.50;;;;;;;4.45;85.56;98729.92;221508;1271;138192;-94
2023/02/24 16:52:34;;;;;;;20.90;8.00;;;;;;;4.44;86.73;98719.48;221124;1267;97939;-83
2023/02/24 16:57:34;;;;;;;18.70;7.00;;;;;;;4.43;87.34;98712.70;220272;1268;139159;-83
2023/02/24 17:02:35;;;;;;;15.90;6.90;;;;;;;4.44;87.83;98705.86;220920;1269;98179;-82
2023/02/24 17:07:38;;;;;;;27.30;9.50;;;;;;;4.43;88.27;98696.05;220296;1269;138557;-83
2023/02/24 17:12:40;;;;;;;18.60;7.30;;;;;;;4.42;88.76;98694.41;220426;1269;777551;-91
2023/02/24 17:17:40;;;;;;;18.90;8.00;;;;;;;4.40;89.11;98695.57;220279;1269;138957;-91
2023/02/24 17:22:42;;;;;;;19.80;7.20;;;;;;;4.39;89.34;98686.92;220953;1269;138237;-91
2023/02/24 17:27:42;;;;;;;20.30;8.90;;;;;;;4.38;89.32;98679.98;221050;1269;139151;-90
2023/02/24 17:32:44;;;;;;;17.90;7.90;;;;;;;4.36;89.52;98682.93;220722;1268;97914;-90
2023/02/24 17:37:44;;;;;;;17.30;6.00;;;;;;;4.35;89.50;98679.80;220190;1269;138755;-92
2023/02/24 17:42:45;;;;;;;16.70;6.20;;;;;;;4.33;89.70;98672.96;220716;1271;138263;-90
2023/02/24 17:47:45;;;;;;;12.10;5.20;;;;;;;4.31;89.83;98666.40;220107;1269;139659;-88
2023/02/24 17:52:46;;;;;;;22.60;7.00;;;;;;;4.26;89.93;98661.38;220739;1268;138336;-91
2023/02/24 17:57:47;;;;;;;24.30;8.10;;;;;;;4.24;90.26;98648.23;219991;1269;138974;-89
2023/02/24 18:02:47;;;;;;;27.30;9.30;;;;;;;4.23;90.18;98641.52;220847;1269;97891;-88
2023/02/24 18:07:47;;;;;;;17.20;5.60;;;;;;;4.19;90.70;98635.42;220405;1268;138561;-90
2023/02/24 18:12:48;;;;;;;18.80;5.60;;;;;;;4.16;90.67;98626.61;220815;1269;138740;-90
2023/02/24 18:17:48;;;;;;;17.70;7.30;;;;;;;4.12;91.19;98622.45;220281;1271;138825;-88
2023/02/24 18:22:49;;;;;;;13.50;7.00;;;;;;;4.08;91.49;98619.95;220861;1269;138322;-90
2023/02/24 18:27:49;;;;;;;15.80;5.20;;;;;;;4.06;91.87;98618.23;220716;1269;138659;-89
2023/02/24 18:32:50;;;;;;;12.80;4.30;;;;;;;4.01;92.05;98615.84;221060;1269;98235;-87
2023/02/24 18:37:55;;;;;;;14.40;5.20;;;;;;;3.96;92.49;98607.88;220128;1271;138285;-85
2023/02/24 18:42:55;;;;;;;13.50;4.20;;;;;;;3.91;92.94;98604.49;220677;1271;139362;-83
2023/02/24 18:48:00;;;;;;;13.30;4.10;;;;;;;3.87;93.29;98601.66;220732;1271;139403;-82
2023/02/24 18:53:01;;;;;;;11.30;4.10;;;;;;;3.85;93.91;98597.60;220758;1269;138463;-88
2023/02/24 18:58:01;;;;;;;10.40;4.80;;;;;;;3.82;94.31;98591.13;220121;1271;139027;-91
2023/02/24 19:03:02;;;;;;;14.80;4.90;;;;;;;3.78;94.73;98582.39;220807;1269;138412;-87
2023/02/24 19:08:03;;;;;;;14.10;5.50;;;;;;;3.75;95.15;98571.25;220279;1269;139771;-88
2023/02/24 19:13:03;;;;;;;12.80;5.20;;;;;;;3.71;95.56;98561.96;220910;1269;138441;-84
2023/02/24 19:18:04;;;;;;;17.50;7.20;;;;;;;3.68;96.03;98563.65;220244;1267;138977;-83
2023/02/24 19:23:05;;;;;;;19.20;8.50;;;;;;;3.67;96.47;98556.42;220832;1269;139229;-85
2023/02/24 19:28:06;;;;;;;17.70;5.90;;;;;;;3.65;97.24;98552.67;220327;1267;138764;-84
2023/02/24 19:33:06;;;;;;;12.40;6.10;;;;;;;3.59;98.20;98543.07;220988;1269;138918;-84
2023/02/24 19:38:08;;;;;;;10.80;5.00;;;;;;;3.53;98.74;98539.27;220612;1269;138418;-83
2023/02/24 19:43:09;;;;;;;15.90;5.90;;;;;;;3.48;99.26;98535.59;220810;1269;138965;-82
2023/02/24 19:48:09;;;;;;;11.10;4.60;;;;;;;3.44;99.68;98531.27;220311;1269;139644;-83
2023/02/24 19:53:10;;;;;;;11.20;4.70;;;;;;;3.42;99.85;98531.26;220707;1269;139451;-87
2023/02/24 19:58:10;;;;;;;14.00;6.90;;;;;;;3.38;100.00;98527.80;220299;1267;138985;-84
2023/02/24 20:03:10;;;;;;;13.50;5.00;;;;;;;3.34;100.00;98516.20;221335;1268;138756;-84
2023/02/24 20:08:11;;;;;;;11.90;5.20;;;;;;;3.29;100.00;98512.64;220267;1271;139872;-83
2023/02/24 20:13:12;;;;;;;16.70;7.70;;;;;;;3.26;100.00;98509.69;220759;1267;140323;-83
2023/02/24 20:18:13;;;;;;;14.20;6.90;;;;;;;3.23;100.00;98502.36;220695;1269;139344;-84
2023/02/24 20:23:13;;;;;;;13.20;4.80;;;;;;;3.20;100.00;98500.23;220814;1267;139566;-88
2023/02/24 20:28:13;;;;;;;11.70;5.10;;;;;;;3.18;100.00;98490.81;220289;1271;139470;-83
2023/02/24 20:33:14;;;;;;;11.80;4.90;;;;;;;3.14;100.00;98490.86;220811;1267;138676;-84
2023/02/24 20:38:15;;;;;;;11.50;5.40;;;;;;;3.12;100.00;98487.34;220358;1269;138608;-83
2023/02/24 20:43:15;;;;;;;11.20;5.00;;;;;;;3.10;100.00;98482.29;220757;1271;138402;-85
2023/02/24 20:48:16;;;;;;;11.50;4.90;;;;;;;3.07;100.00;98473.95;220083;1268;138827;-85
2023/02/24 20:53:16;;;;;;;13.30;5.60;;;;;;;3.07;100.00;98466.02;220683;1269;139068;-85
2023/02/24 20:58:16;;;;;;;10.90;4.70;;;;;;;3.06;100.00;98464.69;220281;1269;140287;-87
2023/02/24 21:03:17;;;;;;;10.30;5.00;;;;;;;3.04;100.00;98454.81;220810;1271;138570;-85
2023/02/24 21:08:18;;;;;;;14.00;5.20;;;;;;;3.02;100.00;98447.12;220364;1269;139723;-85
2023/02/24 21:13:20;;;;;;;12.60;6.50;;;;;;;3.02;100.00;98444.70;220775;1271;138525;-85
2023/02/24 21:18:21;;;;;;;12.40;5.90;;;;;;;3.02;100.00;98440.45;220267;1268;139544;-85
2023/02/24 21:23:22;;;;;;;13.00;6.90;;;;;;;3.02;100.00;98435.01;220526;1269;138790;-86
2023/02/24 21:28:23;;;;;;;15.20;7.00;;;;;;;3.02;100.00;98431.74;220083;1269;139205;-87
2023/02/24 21:33:23;;;;;;;27.60;12.00;;;;;;;3.03;100.00;98430.59;220652;1269;138535;-82
2023/02/24 21:38:24;;;;;;;13.10;7.10;;;;;;;3.02;100.00;98422.11;220246;1269;138998;-85
2023/02/24 21:43:25;;;;;;;12.60;5.60;;;;;;;2.97;100.00;98410.66;220668;1268;138975;-85
2023/02/24 21:48:25;;;;;;;10.50;5.60;;;;;;;2.94;100.00;98409.70;220130;1272;139016;-86
2023/02/24 21:53:26;;;;;;;11.00;5.10;;;;;;;2.92;100.00;98407.45;220747;1270;138548;-86
2023/02/24 21:58:26;;;;;;;12.10;5.90;;;;;;;2.89;100.00;98394.92;220064;1267;138821;-82
2023/02/24 22:03:27;;;;;;;11.80;5.10;;;;;;;2.88;100.00;98392.04;220823;1271;137393;-84
2023/02/24 22:08:27;;;;;;;10.90;5.60;;;;;;;2.88;100.00;98389.95;220393;1271;138646;-85
2023/02/24 22:13:29;;;;;;;12.30;6.30;;;;;;;2.88;100.00;98387.16;220873;1267;138390;-85
2023/02/24 22:18:29;;;;;;;12.30;6.20;;;;;;;2.85;100.00;98380.36;220159;1271;140469;-85
2023/02/24 22:23:30;;;;;;;13.10;7.20;;;;;;;2.82;100.00;98363.81;220738;1271;138983;-84
2023/02/24 22:28:33;;;;;;;15.30;7.60;;;;;;;2.79;100.00;98364.64;220174;1271;139892;-85
2023/02/24 22:33:36;;;;;;;14.40;7.30;;;;;;;2.76;100.00;98363.91;220698;1271;138642;-84
2023/02/24 22:38:37;;;;;;;13.10;6.90;;;;;;;2.74;100.00;98355.45;220381;1267;140401;-85
2023/02/24 22:43:38;;;;;;;15.90;7.70;;;;;;;2.72;100.00;98354.10;221218;1267;138695;-85
2023/02/24 22:48:39;;;;;;;13.70;7.40;;;;;;;2.70;100.00;98356.10;220281;1271;139493;-83
2023/02/24 22:53:42;;;;;;;16.40;9.00;;;;;;;2.69;100.00;98348.26;220582;1267;139646;-84
2023/02/24 22:58:44;;;;;;;16.50;9.00;;;;;;;2.69;100.00;98336.94;220198;1271;138899;-84
2023/02/24 23:03:44;;;;;;;17.00;8.70;;;;;;;2.69;100.00;98328.09;220604;1267;138476;-83
2023/02/24 23:08:47;;;;;;;15.50;8.50;;;;;;;2.71;100.00;98329.89;220296;1272;139147;-83
2023/02/24 23:13:49;;;;;;;18.60;9.40;;;;;;;2.70;100.00;98317.39;220631;1268;138378;-83
2023/02/24 23:18:51;;;;;;;19.40;10.10;;;;;;;2.70;100.00;98318.94;220208;1272;139425;-83
2023/02/24 23:23:55;;;;;;;21.00;11.10;;;;;;;2.68;100.00;98312.95;220720;1272;138734;-84
2023/02/24 23:28:56;;;;;;;21.80;10.70;;;;;;;2.67;100.00;98312.71;220534;1269;140660;-83